sensor_id;sensor_type;location;lat;lon;timestamp;pressure;altitude;pressure_sealevel;temperature;humidity
10474;BME280;5284;50.446;7.904;2023-08-21T00:01:07;99044.50;;;21.12;100.00
10474;BME280;5284;50.446;7.904;2023-08-21T00:06:10;99043.63;;;21.12;100.00
10474;BME280;5284;50.446;7.904;2023-08-21T00:11:13;99041.41;;;21.15;100.00
10474;BME280;5284;50.446;7.904;2023-08-21T00:16:18;99042.88;;;21.18;100.00
10474;BME280;5284;50.446;7.904;2023-08-21T00:21:21;99039.34;;;21.17;100.00
10474;BME280;5284;50.446;7.904;2023-08-21T00:26:24;99040.38;;;21.16;100.00
10474;BME280;5284;50.446;7.904;2023-08-21T00:31:29;99037.00;;;21.14;100.00
10474;BME280;5284;50.446;7.904;2023-08-21T00:36:32;99038.56;;;21.09;100.00
10474;BME280;5284;50.446;7.904;2023-08-21T00:41:35;99035.38;;;21.05;100.00
10474;BME280;5284;50.446;7.904;2023-08-21T00:46:39;99026.13;;;21.00;100.00
10474;BME280;5284;50.446;7.904;2023-08-21T00:51:44;99023.28;;;20.93;100.00
10474;BME280;5284;50.446;7.904;2023-08-21T00:56:47;99028.44;;;20.88;100.00
10474;BME280;5284;50.446;7.904;2023-08-21T01:01:54;99027.44;;;20.81;100.00
10474;BME280;5284;50.446;7.904;2023-08-21T01:06:57;99032.59;;;20.76;100.00
10474;BME280;5284;50.446;7.904;2023-08-21T01:12:07;99032.59;;;20.76;100.00
10474;BME280;5284;50.446;7.904;2023-08-21T01:17:15;99035.28;;;20.76;100.00
10474;BME280;5284;50.446;7.904;2023-08-21T01:22:25;99038.78;;;20.62;100.00
10474;BME280;5284;50.446;7.904;2023-08-21T01:27:30;99044.72;;;20.58;100.00
10474;BME280;5284;50.446;7.904;2023-08-21T01:32:54;99049.69;;;20.54;100.00
10474;BME280;5284;50.446;7.904;2023-08-21T01:37:58;99054.16;;;20.47;100.00
10474;BME280;5284;50.446;7.904;2023-08-21T01:43:03;99053.00;;;20.42;100.00
10474;BME280;5284;50.446;7.904;2023-08-21T01:48:06;99050.81;;;20.37;100.00
10474;BME280;5284;50.446;7.904;2023-08-21T01:53:10;99045.44;;;20.29;100.00
10474;BME280;5284;50.446;7.904;2023-08-21T01:58:14;99052.41;;;20.24;100.00
10474;BME280;5284;50.446;7.904;2023-08-21T02:03:17;99052.78;;;20.21;100.00
10474;BME280;5284;50.446;7.904;2023-08-21T02:08:20;99051.81;;;20.14;100.00
10474;BME280;5284;50.446;7.904;2023-08-21T02:13:27;99043.88;;;20.13;100.00
10474;BME280;5284;50.446;7.904;2023-08-21T02:18:33;99046.28;;;20.08;100.00
10474;BME280;5284;50.446;7.904;2023-08-21T02:23:37;99045.59;;;19.98;100.00
10474;BME280;5284;50.446;7.904;2023-08-21T02:28:41;99050.88;;;19.91;100.00
10474;BME280;5284;50.446;7.904;2023-08-21T02:33:46;99056.81;;;19.87;100.00
10474;BME280;5284;50.446;7.904;2023-08-21T02:38:49;99051.94;;;19.82;100.00
10474;BME280;5284;50.446;7.904;2023-08-21T02:43:54;99045.88;;;19.72;100.00
10474;BME280;5284;50.446;7.904;2023-08-21T02:48:56;99045.38;;;19.69;100.00
10474;BME280;5284;50.446;7.904;2023-08-21T02:54:00;99052.31;;;19.71;100.00
10474;BME280;5284;50.446;7.904;2023-08-21T02:59:04;99045.22;;;19.70;100.00
10474;BME280;5284;50.446;7.904;2023-08-21T03:04:07;99038.28;;;19.68;100.00
10474;BME280;5284;50.446;7.904;2023-08-21T03:09:10;99042.19;;;19.65;100.00
10474;BME280;5284;50.446;7.904;2023-08-21T03:14:15;99046.63;;;19.58;100.00
10474;BME280;5284;50.446;7.904;2023-08-21T03:19:19;99049.50;;;19.57;100.00
10474;BME280;5284;50.446;7.904;2023-08-21T03:24:24;99042.91;;;19.51;100.00
10474;BME280;5284;50.446;7.904;2023-08-21T03:29:28;99037.84;;;19.48;100.00
10474;BME280;5284;50.446;7.904;2023-08-21T03:34:31;99045.97;;;19.48;100.00
10474;BME280;5284;50.446;7.904;2023-08-21T03:39:37;99048.00;;;19.46;100.00
10474;BME280;5284;50.446;7.904;2023-08-21T03:44:45;99047.88;;;19.40;100.00
10474;BME280;5284;50.446;7.904;2023-08-21T03:49:50;99042.09;;;19.35;100.00
10474;BME280;5284;50.446;7.904;2023-08-21T03:54:56;99047.03;;;19.31;100.00
10474;BME280;5284;50.446;7.904;2023-08-21T04:00:05;99046.03;;;19.32;100.00
10474;BME280;5284;50.446;7.904;2023-08-21T04:05:15;99046.19;;;19.31;100.00
10474;BME280;5284;50.446;7.904;2023-08-21T04:10:18;99045.50;;;19.29;100.00
10474;BME280;5284;50.446;7.904;2023-08-21T04:15:22;99040.78;;;19.31;100.00
10474;BME280;5284;50.446;7.904;2023-08-21T04:20:25;99040.44;;;19.26;100.00
10474;BME280;5284;50.446;7.904;2023-08-21T04:25:29;99041.47;;;19.25;100.00
10474;BME280;5284;50.446;7.904;2023-08-21T04:30:35;99045.03;;;19.25;100.00
10474;BME280;5284;50.446;7.904;2023-08-21T04:35:39;99042.47;;;19.24;100.00
10474;BME280;5284;50.446;7.904;2023-08-21T04:40:44;99052.47;;;19.23;100.00
10474;BME280;5284;50.446;7.904;2023-08-21T04:45:50;99051.94;;;19.28;100.00
10474;BME280;5284;50.446;7.904;2023-08-21T04:50:58;99052.09;;;19.34;100.00
10474;BME280;5284;50.446;7.904;2023-08-21T04:56:02;99055.63;;;19.35;100.00
10474;BME280;5284;50.446;7.904;2023-08-21T05:01:09;99059.00;;;19.37;100.00
10474;BME280;5284;50.446;7.904;2023-08-21T05:06:17;99064.78;;;19.42;100.00
10474;BME280;5284;50.446;7.904;2023-08-21T05:11:20;99064.75;;;19.50;100.00
10474;BME280;5284;50.446;7.904;2023-08-21T05:16:24;99063.03;;;19.57;100.00
10474;BME280;5284;50.446;7.904;2023-08-21T05:21:27;99069.56;;;19.70;100.00
10474;BME280;5284;50.446;7.904;2023-08-21T05:26:31;99070.69;;;19.92;100.00
10474;BME280;5284;50.446;7.904;2023-08-21T05:31:36;99070.81;;;19.98;100.00
10474;BME280;5284;50.446;7.904;2023-08-21T05:36:39;99077.75;;;20.09;100.00
10474;BME280;5284;50.446;7.904;2023-08-21T05:41:42;99071.06;;;20.27;100.00
10474;BME280;5284;50.446;7.904;2023-08-21T05:46:47;99070.78;;;20.44;100.00
10474;BME280;5284;50.446;7.904;2023-08-21T05:51:51;99074.88;;;20.63;100.00
10474;BME280;5284;50.446;7.904;2023-08-21T05:56:55;99073.91;;;20.78;100.00
10474;BME280;5284;50.446;7.904;2023-08-21T06:01:59;99074.13;;;21.14;100.00
10474;BME280;5284;50.446;7.904;2023-08-21T06:07:03;99073.63;;;21.47;100.00
10474;BME280;5284;50.446;7.904;2023-08-21T06:12:08;99081.09;;;21.82;100.00
10474;BME280;5284;50.446;7.904;2023-08-21T06:17:14;99082.38;;;22.15;100.00
10474;BME280;5284;50.446;7.904;2023-08-21T06:22:17;99081.41;;;22.37;100.00
10474;BME280;5284;50.446;7.904;2023-08-21T06:27:20;99080.47;;;22.65;100.00
10474;BME280;5284;50.446;7.904;2023-08-21T06:32:24;99082.38;;;22.50;100.00
10474;BME280;5284;50.446;7.904;2023-08-21T06:37:27;99082.44;;;22.71;100.00
10474;BME280;5284;50.446;7.904;2023-08-21T06:42:31;99086.91;;;23.21;100.00
10474;BME280;5284;50.446;7.904;2023-08-21T06:47:37;99082.03;;;23.16;100.00
10474;BME280;5284;50.446;7.904;2023-08-21T06:52:44;99083.31;;;22.78;100.00
10474;BME280;5284;50.446;7.904;2023-08-21T06:57:47;99081.72;;;22.84;100.00
10474;BME280;5284;50.446;7.904;2023-08-21T07:02:52;99086.22;;;22.56;100.00
10474;BME280;5284;50.446;7.904;2023-08-21T07:07:56;99084.84;;;23.23;100.00
10474;BME280;5284;50.446;7.904;2023-08-21T07:12:59;99088.28;;;23.37;100.00
10474;BME280;5284;50.446;7.904;2023-08-21T07:18:04;99085.22;;;23.20;100.00
10474;BME280;5284;50.446;7.904;2023-08-21T07:23:07;99086.72;;;23.49;100.00
10474;BME280;5284;50.446;7.904;2023-08-21T07:28:10;99090.34;;;23.84;100.00
10474;BME280;5284;50.446;7.904;2023-08-21T07:33:15;99092.47;;;23.95;100.00
10474;BME280;5284;50.446;7.904;2023-08-21T07:38:18;99095.97;;;24.16;100.00
10474;BME280;5284;50.446;7.904;2023-08-21T07:43:21;99093.22;;;24.50;100.00
10474;BME280;5284;50.446;7.904;2023-08-21T07:48:25;99095.59;;;24.79;100.00
10474;BME280;5284;50.446;7.904;2023-08-21T07:53:28;99092.66;;;24.93;100.00
10474;BME280;5284;50.446;7.904;2023-08-21T07:58:33;99088.72;;;25.15;100.00
10474;BME280;5284;50.446;7.904;2023-08-21T08:03:37;99093.59;;;25.39;100.00
10474;BME280;5284;50.446;7.904;2023-08-21T08:08:40;99095.66;;;25.89;98.34
10474;BME280;5284;50.446;7.904;2023-08-21T08:13:43;99089.06;;;26.23;95.15
10474;BME280;5284;50.446;7.904;2023-08-21T08:18:47;99085.97;;;26.00;96.06
10474;BME280;5284;50.446;7.904;2023-08-21T08:23:50;99089.69;;;26.18;95.80
10474;BME280;5284;50.446;7.904;2023-08-21T08:28:55;99098.22;;;26.48;94.37
10474;BME280;5284;50.446;7.904;2023-08-21T08:34:00;99091.75;;;26.79;92.67
10474;BME280;5284;50.446;7.904;2023-08-21T08:39:03;99089.59;;;26.88;94.41
10474;BME280;5284;50.446;7.904;2023-08-21T08:44:07;99086.50;;;27.64;88.10
10474;BME280;5284;50.446;7.904;2023-08-21T08:49:12;99080.84;;;27.84;87.23
10474;BME280;5284;50.446;7.904;2023-08-21T08:54:16;99072.84;;;27.82;87.98
10474;BME280;5284;50.446;7.904;2023-08-21T08:59:19;99084.88;;;27.32;91.06
10474;BME280;5284;50.446;7.904;2023-08-21T09:04:24;99078.63;;;27.50;86.58
10474;BME280;5284;50.446;7.904;2023-08-21T09:09:37;99078.44;;;27.69;86.14
10474;BME280;5284;50.446;7.904;2023-08-21T09:14:41;99073.56;;;28.31;83.77
10474;BME280;5284;50.446;7.904;2023-08-21T09:19:46;99077.84;;;28.75;85.48
10474;BME280;5284;50.446;7.904;2023-08-21T09:25:07;99073.47;;;29.15;78.50
10474;BME280;5284;50.446;7.904;2023-08-21T09:30:12;99070.16;;;29.24;78.31
10474;BME280;5284;50.446;7.904;2023-08-21T09:35:17;99073.66;;;29.43;78.16
10474;BME280;5284;50.446;7.904;2023-08-21T09:40:21;99068.06;;;29.49;75.11
10474;BME280;5284;50.446;7.904;2023-08-21T09:45:25;99066.88;;;29.68;76.22
10474;BME280;5284;50.446;7.904;2023-08-21T09:50:30;99066.06;;;29.68;74.70
10474;BME280;5284;50.446;7.904;2023-08-21T09:55:33;99068.81;;;30.02;74.29
10474;BME280;5284;50.446;7.904;2023-08-21T10:00:36;99059.72;;;30.01;72.85
10474;BME280;5284;50.446;7.904;2023-08-21T10:05:43;99064.69;;;30.27;76.02
10474;BME280;5284;50.446;7.904;2023-08-21T10:10:46;99060.50;;;30.36;77.02
10474;BME280;5284;50.446;7.904;2023-08-21T10:15:48;99055.72;;;30.71;72.36
10474;BME280;5284;50.446;7.904;2023-08-21T10:20:54;99055.59;;;31.22;68.05
10474;BME280;5284;50.446;7.904;2023-08-21T10:26:00;99048.09;;;31.18;67.06
10474;BME280;5284;50.446;7.904;2023-08-21T10:36:41;99049.66;;;31.30;63.28
10474;BME280;5284;50.446;7.904;2023-08-21T10:42:05;99046.34;;;31.00;62.41
10474;BME280;5284;50.446;7.904;2023-08-21T10:47:16;99042.09;;;31.70;62.22
10474;BME280;5284;50.446;7.904;2023-08-21T10:52:24;99043.31;;;30.85;65.99
10474;BME280;5284;50.446;7.904;2023-08-21T10:57:30;99041.88;;;30.55;66.86
10474;BME280;5284;50.446;7.904;2023-08-21T11:02:33;99034.63;;;31.70;65.76
10474;BME280;5284;50.446;7.904;2023-08-21T11:07:38;99036.13;;;31.29;63.96
10474;BME280;5284;50.446;7.904;2023-08-21T11:12:49;99034.78;;;31.80;61.21
10474;BME280;5284;50.446;7.904;2023-08-21T11:17:54;99042.72;;;31.44;62.24
10474;BME280;5284;50.446;7.904;2023-08-21T11:23:00;99038.31;;;31.76;63.49
10474;BME280;5284;50.446;7.904;2023-08-21T11:28:05;99036.88;;;32.11;62.83
10474;BME280;5284;50.446;7.904;2023-08-21T11:33:11;99042.81;;;31.49;62.96
10474;BME280;5284;50.446;7.904;2023-08-21T11:38:19;99024.38;;;32.04;65.85
10474;BME280;5284;50.446;7.904;2023-08-21T11:43:22;99041.41;;;32.82;59.92
10474;BME280;5284;50.446;7.904;2023-08-21T11:48:27;99035.81;;;33.03;59.10
10474;BME280;5284;50.446;7.904;2023-08-21T11:53:35;99029.69;;;33.59;56.13
10474;BME280;5284;50.446;7.904;2023-08-21T11:58:39;99026.00;;;34.21;55.21
10474;BME280;5284;50.446;7.904;2023-08-21T12:03:43;99022.41;;;34.26;52.32
10474;BME280;5284;50.446;7.904;2023-08-21T12:08:49;99025.38;;;33.36;54.47
10474;BME280;5284;50.446;7.904;2023-08-21T12:13:52;99021.06;;;33.50;55.26
10474;BME280;5284;50.446;7.904;2023-08-21T12:18:55;99015.50;;;33.50;55.27
10474;BME280;5284;50.446;7.904;2023-08-21T12:24:00;99024.66;;;33.20;54.47
10474;BME280;5284;50.446;7.904;2023-08-21T12:29:05;99018.44;;;32.60;55.87
10474;BME280;5284;50.446;7.904;2023-08-21T12:34:08;99023.59;;;34.50;52.55
10474;BME280;5284;50.446;7.904;2023-08-21T12:39:16;99006.59;;;35.82;49.85
10474;BME280;5284;50.446;7.904;2023-08-21T12:44:19;99013.28;;;35.31;49.86
10474;BME280;5284;50.446;7.904;2023-08-21T12:49:22;99010.09;;;37.29;44.83
10474;BME280;5284;50.446;7.904;2023-08-21T12:54:26;99008.38;;;39.76;43.68
10474;BME280;5284;50.446;7.904;2023-08-21T12:59:30;99001.22;;;38.83;40.58
10474;BME280;5284;50.446;7.904;2023-08-21T13:04:33;99002.44;;;41.48;41.83
10474;BME280;5284;50.446;7.904;2023-08-21T13:09:37;98994.19;;;39.22;41.82
10474;BME280;5284;50.446;7.904;2023-08-21T13:14:41;98998.06;;;37.00;44.75
10474;BME280;5284;50.446;7.904;2023-08-21T13:19:44;98992.94;;;35.96;46.42
10474;BME280;5284;50.446;7.904;2023-08-21T13:24:49;98990.75;;;36.71;45.98
10474;BME280;5284;50.446;7.904;2023-08-21T13:29:52;98991.63;;;35.58;46.62
10474;BME280;5284;50.446;7.904;2023-08-21T13:34:55;98995.75;;;37.79;44.99
10474;BME280;5284;50.446;7.904;2023-08-21T13:39:59;98994.38;;;38.29;44.71
10474;BME280;5284;50.446;7.904;2023-08-21T13:45:17;98989.38;;;38.26;43.83
10474;BME280;5284;50.446;7.904;2023-08-21T13:50:20;98989.28;;;38.12;43.24
10474;BME280;5284;50.446;7.904;2023-08-21T13:55:26;98973.09;;;37.86;43.41
10474;BME280;5284;50.446;7.904;2023-08-21T14:00:30;98974.63;;;37.06;45.59
10474;BME280;5284;50.446;7.904;2023-08-21T14:05:33;98972.47;;;35.07;47.36
10474;BME280;5284;50.446;7.904;2023-08-21T14:10:37;98976.19;;;38.54;42.98
10474;BME280;5284;50.446;7.904;2023-08-21T14:15:41;98974.19;;;37.90;44.71
10474;BME280;5284;50.446;7.904;2023-08-21T14:20:44;98972.06;;;37.15;44.55
10474;BME280;5284;50.446;7.904;2023-08-21T14:25:48;98969.59;;;40.02;41.99
10474;BME280;5284;50.446;7.904;2023-08-21T14:30:52;98970.63;;;40.86;39.32
10474;BME280;5284;50.446;7.904;2023-08-21T14:35:55;98970.94;;;43.06;37.00
10474;BME280;5284;50.446;7.904;2023-08-21T14:41:00;98964.34;;;44.07;36.61
10474;BME280;5284;50.446;7.904;2023-08-21T14:46:03;98964.00;;;43.46;36.34
10474;BME280;5284;50.446;7.904;2023-08-21T14:51:08;98969.81;;;44.70;35.34
10474;BME280;5284;50.446;7.904;2023-08-21T14:56:13;98952.75;;;45.16;34.37
10474;BME280;5284;50.446;7.904;2023-08-21T15:01:17;98963.91;;;46.94;32.28
10474;BME280;5284;50.446;7.904;2023-08-21T15:06:21;98967.25;;;46.72;32.35
10474;BME280;5284;50.446;7.904;2023-08-21T15:11:26;98950.03;;;47.83;31.45
10474;BME280;5284;50.446;7.904;2023-08-21T15:16:30;98957.91;;;48.20;30.75
10474;BME280;5284;50.446;7.904;2023-08-21T15:21:33;98953.78;;;48.49;30.64
10474;BME280;5284;50.446;7.904;2023-08-21T15:26:38;98958.81;;;48.24;30.28
10474;BME280;5284;50.446;7.904;2023-08-21T15:31:41;98946.34;;;47.39;30.80
10474;BME280;5284;50.446;7.904;2023-08-21T15:36:44;98952.97;;;48.48;29.42
10474;BME280;5284;50.446;7.904;2023-08-21T15:41:48;98944.81;;;47.57;30.41
10474;BME280;5284;50.446;7.904;2023-08-21T15:46:51;98956.38;;;46.86;30.67
10474;BME280;5284;50.446;7.904;2023-08-21T15:52:14;98956.47;;;48.42;30.75
10474;BME280;5284;50.446;7.904;2023-08-21T15:57:19;98948.63;;;48.04;30.30
10474;BME280;5284;50.446;7.904;2023-08-21T16:02:21;98943.25;;;47.44;30.52
10474;BME280;5284;50.446;7.904;2023-08-21T16:07:24;98941.31;;;48.03;30.10
10474;BME280;5284;50.446;7.904;2023-08-21T16:12:29;98941.50;;;48.76;29.69
10474;BME280;5284;50.446;7.904;2023-08-21T16:17:32;98938.47;;;48.84;29.64
10474;BME280;5284;50.446;7.904;2023-08-21T16:22:35;98934.13;;;48.56;30.20
10474;BME280;5284;50.446;7.904;2023-08-21T16:27:41;98935.19;;;48.17;30.11
10474;BME280;5284;50.446;7.904;2023-08-21T16:32:45;98933.91;;;48.64;28.90
10474;BME280;5284;50.446;7.904;2023-08-21T16:37:48;98937.75;;;47.79;30.13
10474;BME280;5284;50.446;7.904;2023-08-21T16:42:52;98936.56;;;47.37;30.71
10474;BME280;5284;50.446;7.904;2023-08-21T16:47:55;98933.03;;;45.81;30.92
10474;BME280;5284;50.446;7.904;2023-08-21T16:52:59;98939.97;;;45.83;31.43
10474;BME280;5284;50.446;7.904;2023-08-21T16:58:19;98925.94;;;45.10;32.08
10474;BME280;5284;50.446;7.904;2023-08-21T17:03:22;98918.00;;;44.34;32.79
10474;BME280;5284;50.446;7.904;2023-08-21T17:08:26;98912.28;;;42.23;34.77
10474;BME280;5284;50.446;7.904;2023-08-21T17:13:31;98912.50;;;40.56;36.90
10474;BME280;5284;50.446;7.904;2023-08-21T17:18:35;98908.84;;;37.77;40.52
10474;BME280;5284;50.446;7.904;2023-08-21T17:23:38;98898.34;;;35.12;44.26
10474;BME280;5284;50.446;7.904;2023-08-21T17:28:43;98903.28;;;33.69;46.13
10474;BME280;5284;50.446;7.904;2023-08-21T17:33:46;98906.06;;;31.96;49.50
10474;BME280;5284;50.446;7.904;2023-08-21T17:38:49;98894.38;;;31.30;52.52
10474;BME280;5284;50.446;7.904;2023-08-21T17:43:54;98896.75;;;30.44;55.25
10474;BME280;5284;50.446;7.904;2023-08-21T17:48:56;98898.38;;;30.00;57.48
10474;BME280;5284;50.446;7.904;2023-08-21T17:54:00;98894.22;;;29.47;60.41
10474;BME280;5284;50.446;7.904;2023-08-21T17:59:05;98891.34;;;29.08;61.98
10474;BME280;5284;50.446;7.904;2023-08-21T18:04:08;98891.91;;;28.64;64.66
10474;BME280;5284;50.446;7.904;2023-08-21T18:09:11;98892.19;;;28.15;66.78
10474;BME280;5284;50.446;7.904;2023-08-21T18:14:16;98893.63;;;27.88;67.88
10474;BME280;5284;50.446;7.904;2023-08-21T18:19:19;98895.63;;;27.45;71.79
10474;BME280;5284;50.446;7.904;2023-08-21T18:24:28;98890.56;;;27.06;75.19
10474;BME280;5284;50.446;7.904;2023-08-21T18:29:35;98897.50;;;26.84;75.81
10474;BME280;5284;50.446;7.904;2023-08-21T18:34:41;98887.41;;;26.61;76.52
10474;BME280;5284;50.446;7.904;2023-08-21T18:39:44;98897.66;;;26.34;77.79
10474;BME280;5284;50.446;7.904;2023-08-21T18:44:49;98904.59;;;26.06;80.82
10474;BME280;5284;50.446;7.904;2023-08-21T18:49:53;98900.53;;;25.77;83.68
10474;BME280;5284;50.446;7.904;2023-08-21T18:54:57;98903.78;;;25.55;86.48
10474;BME280;5284;50.446;7.904;2023-08-21T19:00:01;98908.03;;;25.31;87.27
10474;BME280;5284;50.446;7.904;2023-08-21T19:05:10;98908.47;;;25.15;87.35
10474;BME280;5284;50.446;7.904;2023-08-21T19:10:13;98919.84;;;24.99;89.10
10474;BME280;5284;50.446;7.904;2023-08-21T19:15:18;98922.59;;;24.87;89.10
10474;BME280;5284;50.446;7.904;2023-08-21T19:20:21;98921.34;;;24.70;91.27
10474;BME280;5284;50.446;7.904;2023-08-21T19:25:24;98923.63;;;24.60;89.78
10474;BME280;5284;50.446;7.904;2023-08-21T19:30:33;98919.22;;;24.46;91.26
10474;BME280;5284;50.446;7.904;2023-08-21T19:35:36;98928.84;;;24.35;92.79
10474;BME280;5284;50.446;7.904;2023-08-21T19:40:39;98921.25;;;24.18;100.00
10474;BME280;5284;50.446;7.904;2023-08-21T19:45:54;98922.03;;;23.92;100.00
10474;BME280;5284;50.446;7.904;2023-08-21T19:50:58;98932.09;;;23.85;100.00
10474;BME280;5284;50.446;7.904;2023-08-21T19:56:01;98923.00;;;23.78;99.88
10474;BME280;5284;50.446;7.904;2023-08-21T20:01:06;98916.28;;;23.68;100.00
10474;BME280;5284;50.446;7.904;2023-08-21T20:06:10;98917.28;;;23.60;100.00
10474;BME280;5284;50.446;7.904;2023-08-21T20:11:14;98913.09;;;23.24;100.00
10474;BME280;5284;50.446;7.904;2023-08-21T20:16:18;98910.44;;;23.03;100.00
10474;BME280;5284;50.446;7.904;2023-08-21T20:21:22;98917.91;;;22.95;100.00
10474;BME280;5284;50.446;7.904;2023-08-21T20:26:26;98909.94;;;22.93;100.00
10474;BME280;5284;50.446;7.904;2023-08-21T20:31:32;98909.06;;;22.86;100.00
10474;BME280;5284;50.446;7.904;2023-08-21T20:36:35;98924.31;;;22.81;100.00
10474;BME280;5284;50.446;7.904;2023-08-21T20:41:39;98916.25;;;22.66;100.00
10474;BME280;5284;50.446;7.904;2023-08-21T20:46:43;98917.50;;;22.43;100.00
10474;BME280;5284;50.446;7.904;2023-08-21T20:51:46;98922.41;;;22.33;100.00
10474;BME280;5284;50.446;7.904;2023-08-21T21:01:54;98908.88;;;22.18;100.00
10474;BME280;5284;50.446;7.904;2023-08-21T21:06:57;98923.06;;;22.14;100.00
10474;BME280;5284;50.446;7.904;2023-08-21T21:12:00;98915.00;;;22.06;100.00
10474;BME280;5284;50.446;7.904;2023-08-21T21:17:06;98909.06;;;21.96;100.00
10474;BME280;5284;50.446;7.904;2023-08-21T21:22:09;98897.41;;;21.81;100.00
10474;BME280;5284;50.446;7.904;2023-08-21T21:27:12;98900.88;;;21.75;100.00
10474;BME280;5284;50.446;7.904;2023-08-21T21:32:17;98907.47;;;21.66;100.00
10474;BME280;5284;50.446;7.904;2023-08-21T21:37:23;98913.16;;;21.57;100.00
10474;BME280;5284;50.446;7.904;2023-08-21T21:42:26;98915.72;;;21.44;100.00
10474;BME280;5284;50.446;7.904;2023-08-21T21:47:32;98918.91;;;21.33;100.00
10474;BME280;5284;50.446;7.904;2023-08-21T21:52:35;98912.00;;;21.30;100.00
10474;BME280;5284;50.446;7.904;2023-08-21T21:57:38;98911.81;;;21.17;100.00
10474;BME280;5284;50.446;7.904;2023-08-21T22:02:44;98908.53;;;21.07;100.00
10474;BME280;5284;50.446;7.904;2023-08-21T22:07:47;98898.91;;;21.05;100.00
10474;BME280;5284;50.446;7.904;2023-08-21T22:12:51;98903.19;;;20.99;100.00
10474;BME280;5284;50.446;7.904;2023-08-21T22:17:58;98898.91;;;20.90;100.00
10474;BME280;5284;50.446;7.904;2023-08-21T22:23:02;98905.72;;;20.86;100.00
10474;BME280;5284;50.446;7.904;2023-08-21T22:28:05;98903.41;;;20.83;100.00
10474;BME280;5284;50.446;7.904;2023-08-21T22:33:09;98902.97;;;20.72;100.00
10474;BME280;5284;50.446;7.904;2023-08-21T22:38:12;98896.69;;;20.71;100.00
10474;BME280;5284;50.446;7.904;2023-08-21T22:43:16;98892.09;;;20.57;100.00
10474;BME280;5284;50.446;7.904;2023-08-21T22:48:21;98895.28;;;20.46;100.00
10474;BME280;5284;50.446;7.904;2023-08-21T22:53:24;98899.00;;;20.45;100.00
10474;BME280;5284;50.446;7.904;2023-08-21T22:58:27;98886.84;;;20.41;100.00
10474;BME280;5284;50.446;7.904;2023-08-21T23:03:31;98892.97;;;20.35;100.00
10474;BME280;5284;50.446;7.904;2023-08-21T23:08:34;98893.06;;;20.27;100.00
10474;BME280;5284;50.446;7.904;2023-08-21T23:13:37;98891.75;;;20.23;100.00
10474;BME280;5284;50.446;7.904;2023-08-21T23:18:41;98890.88;;;20.23;100.00
10474;BME280;5284;50.446;7.904;2023-08-21T23:23:46;98886.41;;;20.15;100.00
10474;BME280;5284;50.446;7.904;2023-08-21T23:28:49;98875.63;;;20.08;100.00
10474;BME280;5284;50.446;7.904;2023-08-21T23:33:55;98878.06;;;19.95;100.00
10474;BME280;5284;50.446;7.904;2023-08-21T23:38:59;98873.72;;;19.86;100.00
10474;BME280;5284;50.446;7.904;2023-08-21T23:44:02;98871.69;;;19.88;100.00
10474;BME280;5284;50.446;7.904;2023-08-21T23:49:07;98875.47;;;19.79;100.00
10474;BME280;5284;50.446;7.904;2023-08-21T23:54:10;98868.25;;;19.71;100.00
10474;BME280;5284;50.446;7.904;2023-08-21T23:59:13;98855.91;;;19.69;100.00
